• Join FlightAware (Why Join?)
  • Login
  • US Flag 
08:35PM EDT


 

Airport Tracker/Info


-or-


 

Live Flight TrackerFlight Track Log ✈ N217TM ✈ 29-Apr-2014 ✈ KHQZ - KHDO

Flight Track Log - Related Links

Times and Time Zones

All times are in EDT time to prevent confusion due to time zone crossing. See the N217TM flight status page for this flight to view local times or setup timezone preferences in your user account.

Time Position Orientation Groundspeed Altitude Reporting Facility
EDT Latitude Longitude Course Direction KTS MPH feet Rate Location/Type
10:56AM 32.7667 -96.5333 360° North 135 155 800  Level Dallas / Fort Worth TRACON
10:56AM 32.7667 -96.5333 23° Northeast 121 139 1,300 900 Climbing Dallas / Fort Worth TRACON
10:57AM 32.8000 -96.5167 23° Northeast 101 116 1,900 660 Climbing Dallas / Fort Worth TRACON
10:58AM 32.8192 -96.5119 12° North 122 140 2,600 840 Climbing Fort Worth Center
10:59AM 32.7875 -96.4736 134° Southeast 155 178 3,500 660 Climbing Fort Worth Center
11:00AM 32.7386 -96.4803 187° South 176 203 4,000 240 Climbing Fort Worth Center
11:01AM 32.6786 -96.5097 202° Southwest 214 246 4,000  Level Fort Worth Center
11:02AM 32.6175 -96.5378 201° Southwest 233 268 4,000  Level Fort Worth Center
11:03AM 32.5494 -96.5650 199° South 239 275 4,000  Level Fort Worth Center
11:04AM 32.4844 -96.5878 196° South 240 276 4,000 60 Level Fort Worth Center
11:05AM 32.4433 -96.6442 229° Southwest 228 262 4,200 960 Climbing Fort Worth Center
11:06AM 32.4050 -96.6961 229° Southwest 197 227 6,000 1,740 Climbing Fort Worth Center
11:07AM 32.3778 -96.7406 234° Southwest 174 200 7,800 1,740 Climbing Fort Worth Center
11:08AM 32.3483 -96.7811 229° Southwest 157 181 9,700 1,800 Climbing Fort Worth Center
11:09AM 32.3069 -96.7936 194° South 168 193 11,600 1,080 Climbing Fort Worth Center
11:10AM 32.2594 -96.8186 204° Southwest 180 207 12,000 600 Climbing Fort Worth Center
11:11AM 32.2194 -96.8522 215° Southwest 195 224 12,900 1,200 Climbing Fort Worth Center
11:12AM 32.1819 -96.8836 215° Southwest 179 206 14,600 1,500 Climbing Fort Worth Center
11:13AM 32.1492 -96.9100 214° Southwest 153 176 16,100 1,560 Climbing Fort Worth Center
11:14AM 32.1122 -96.9411 216° Southwest 140 161 17,900 1,380 Climbing Fort Worth Center
11:15AM 32.0817 -96.9672 216° Southwest 137 158 19,000 480 Climbing Fort Worth Center
11:16AM 32.0439 -96.9992 216° Southwest 158 182 19,000  Level Fort Worth Center
11:17AM 32.0014 -97.0356 216° Southwest 182 209 19,000  Level Fort Worth Center
11:18AM 31.9589 -97.0706 215° Southwest 184 212 19,000  Level Fort Worth Center
11:19AM 31.9153 -97.1075 216° Southwest 189 217 19,000 420 Level Fort Worth Center
11:20AM 31.8644 -97.1494 215° Southwest 187 215 19,900 480 Climbing Fort Worth Center
11:21AM 31.8225 -97.1844 215° Southwest 184 212 20,000  Climbing Fort Worth Center
11:23AM 31.7767 -97.2242 216° Southwest 200 230 20,000  Level Fort Worth Center
11:24AM 31.7300 -97.2628 215° Southwest 201 231 20,000  Level Fort Worth Center
11:25AM 31.6831 -97.3019 215° Southwest 205 236 20,000  Level Fort Worth Center
11:26AM 31.6364 -97.3406 215° Southwest 205 236 20,000  Level Fort Worth Center
11:27AM 31.5803 -97.3872 215° Southwest 205 236 20,000  Level Fort Worth Center
11:28AM 31.5333 -97.4264 215° Southwest 205 236 20,000  Level Fort Worth Center
11:29AM 31.4850 -97.4658 215° Southwest 206 237 20,000  Level Fort Worth Center
11:30AM 31.4372 -97.5050 215° Southwest 207 238 20,000  Level Fort Worth Center
11:31AM 31.3897 -97.5461 216° Southwest 209 241 20,000  Level Fort Worth Center
11:32AM 31.3314 -97.5939 215° Southwest 210 242 20,000  Level Fort Worth Center
11:33AM 31.2831 -97.6339 215° Southwest 213 245 20,000  Level Fort Worth Center
11:34AM 31.2336 -97.6722 214° Southwest 212 244 20,000  Level Fort Worth Center
11:35AM 31.1850 -97.7147 217° Southwest 215 247 20,000  Level Fort Worth Center
11:36AM 31.1369 -97.7531 214° Southwest 214 246 20,000  Level Fort Worth Center
11:37AM 31.0881 -97.7936 215° Southwest 214 246 20,000  Level Fort Worth Center
11:38AM 31.0289 -97.8425 215° Southwest 214 246 20,000  Level Fort Worth Center
11:39AM 30.9808 -97.8808 214° Southwest 213 245 20,000  Level Fort Worth Center
11:40AM 30.9303 -97.9211 214° Southwest 215 247 20,000  Level Fort Worth Center
11:41AM 30.8803 -97.9625 215° Southwest 216 249 20,000  Level Fort Worth Center
11:42AM 30.8392 -97.9958 215° Southwest 216 249 20,000  Level Houston Center
11:43AM 30.7897 -98.0364 215° Southwest 216 249 20,000  Level Houston Center
11:44AM 30.7386 -98.0761 214° Southwest 219 252 20,000  Level Houston Center
11:45AM 30.6894 -98.1175 216° Southwest 219 252 20,000  Level Houston Center
11:46AM 30.6378 -98.1581 214° Southwest 221 254 20,000  Level Houston Center
11:47AM 30.5789 -98.2061 215° Southwest 220 253 20,000  Level Houston Center
11:48AM 30.5283 -98.2472 215° Southwest 220 253 20,000  Level Houston Center
11:49AM 30.4783 -98.2875 215° Southwest 220 253 20,000  Level Houston Center
11:50AM 30.4283 -98.3286 215° Southwest 220 253 20,000  Level Houston Center
11:51AM 30.3786 -98.3686 215° Southwest 220 253 20,000  Level Houston Center
11:52AM 30.3281 -98.4097 215° Southwest 220 253 20,000  Level Houston Center
11:53AM 30.2625 -98.4611 214° Southwest 224 258 20,000  Level Houston Center
11:54AM 30.2111 -98.5025 215° Southwest 224 258 20,000  Level Houston Center
11:55AM 30.1544 -98.5486 215° Southwest 228 262 20,000  Level Houston Center
11:56AM 30.1011 -98.5906 214° Southwest 229 264 20,000  Level Houston Center
11:57AM 30.0453 -98.6347 214° Southwest 229 264 20,000  Level Houston Center
11:58AM 29.9944 -98.6761 215° Southwest 227 261 20,000  Level Houston Center
12:00PM 29.9467 -98.7142 215° Southwest 213 245 20,000  Level Houston Center
12:01PM 29.8942 -98.7553 214° Southwest 212 244 20,000 -600 Level Houston Center
12:02PM 29.8444 -98.7947 215° Southwest 213 245 18,800 -1,560 Descending Houston Center
12:03PM 29.7814 -98.8439 214° Southwest 249 287 16,800 -1,920 Descending Houston Center
12:04PM 29.7267 -98.8881 215° Southwest 244 281 14,900 -1,980 Descending Houston Center
12:05PM 29.6703 -98.9325 214° Southwest 234 269 12,800 -1,920 Descending Houston Center
12:06PM 29.6181 -98.9742 215° Southwest 232 267 11,000 -1,860 Descending Houston Center
12:07PM 29.5658 -99.0153 214° Southwest 217 250 9,000 -1,980 Descending Houston Center